createdAt,value
2024-03-28T00:01:28.600Z,4.20
2024-03-28T00:03:59.779Z,4.60
2024-03-28T00:06:30.955Z,4.40
2024-03-28T00:09:03.849Z,4.70
2024-03-28T00:11:35.264Z,4.60
2024-03-28T00:14:07.596Z,5.10
2024-03-28T00:16:38.822Z,5.20
2024-03-28T00:19:11.309Z,5.00
2024-03-28T00:21:42.858Z,5.20
2024-03-28T00:24:14.015Z,5.70
2024-03-28T00:26:46.671Z,5.90
2024-03-28T00:29:18.030Z,5.70
2024-03-28T00:31:50.685Z,6.40
2024-03-28T00:34:21.872Z,6.00
2024-03-28T00:36:52.964Z,5.50
2024-03-28T00:39:24.133Z,5.70
2024-03-28T00:41:55.330Z,5.20
2024-03-28T00:44:26.532Z,5.70
2024-03-28T00:46:57.618Z,6.10
2024-03-28T00:49:28.742Z,5.70
2024-03-28T00:51:59.815Z,5.20
2024-03-28T00:54:30.928Z,5.90
2024-03-28T00:57:01.991Z,5.60
2024-03-28T00:59:32.921Z,6.20
2024-03-28T01:02:04.111Z,6.30
2024-03-28T01:04:35.062Z,5.70
2024-03-28T01:07:06.473Z,6.00
2024-03-28T01:09:41.119Z,5.30
2024-03-28T01:12:13.937Z,5.40
2024-03-28T01:14:45.335Z,5.50
2024-03-28T01:17:16.759Z,6.50
2024-03-28T01:19:49.071Z,5.80
2024-03-28T01:22:20.522Z,5.60
2024-03-28T01:24:53.383Z,5.60
2024-03-28T01:27:24.638Z,6.10
2024-03-28T01:29:57.171Z,5.90
2024-03-28T01:32:28.062Z,5.40
2024-03-28T01:34:59.157Z,5.70
2024-03-28T01:37:30.134Z,5.00
2024-03-28T01:40:02.138Z,5.70
2024-03-28T01:42:33.390Z,5.40
2024-03-28T01:45:05.456Z,6.20
2024-03-28T01:50:13.871Z,5.20
2024-03-28T01:52:45.027Z,5.30
2024-03-28T01:55:16.360Z,5.50
2024-03-28T01:57:48.823Z,4.60
2024-03-28T02:00:22.072Z,5.70
2024-03-28T02:02:53.236Z,5.40
2024-03-28T02:05:24.830Z,5.70
2024-03-28T02:07:56.026Z,5.60
2024-03-28T02:10:28.272Z,5.30
2024-03-28T02:12:59.191Z,5.60
2024-03-28T02:15:30.273Z,6.10
2024-03-28T02:18:01.155Z,5.40
2024-03-28T02:20:32.174Z,5.90
2024-03-28T02:23:03.258Z,5.20
2024-03-28T02:25:34.464Z,6.00
2024-03-28T02:28:05.613Z,5.60
2024-03-28T02:30:36.625Z,5.70
2024-03-28T02:33:08.228Z,5.50
2024-03-28T02:35:39.475Z,5.70
2024-03-28T02:38:10.387Z,5.80
2024-03-28T02:40:41.562Z,5.60
2024-03-28T02:43:12.638Z,6.10
2024-03-28T02:45:43.970Z,5.90
2024-03-28T02:48:15.171Z,5.80
2024-03-28T02:50:46.271Z,5.40
2024-03-28T02:53:17.552Z,5.80
2024-03-28T02:55:53.875Z,6.00
2024-03-28T02:58:25.412Z,6.00
2024-03-28T03:00:57.739Z,5.90
2024-03-28T03:03:28.735Z,5.50
2024-03-28T03:06:00.149Z,6.00
2024-03-28T03:08:31.115Z,5.70
2024-03-28T03:11:02.073Z,5.50
2024-03-28T03:13:33.125Z,5.20
2024-03-28T03:16:05.128Z,5.10
2024-03-28T03:18:36.251Z,5.50
2024-03-28T03:21:10.104Z,6.00
2024-03-28T03:23:49.517Z,6.20
2024-03-28T03:26:24.118Z,5.90
2024-03-28T03:29:23.992Z,6.30
2024-03-28T03:32:12.765Z,5.70
2024-03-28T03:34:44.847Z,5.80
2024-03-28T03:37:18.354Z,5.80
2024-03-28T03:39:54.573Z,5.30
2024-03-28T03:42:25.935Z,5.70
2024-03-28T03:44:57.142Z,5.80
2024-03-28T03:47:28.230Z,5.60
2024-03-28T03:49:59.258Z,5.90
2024-03-28T03:52:30.385Z,5.90
2024-03-28T03:55:01.398Z,4.80
2024-03-28T03:57:32.663Z,5.70
2024-03-28T04:00:05.240Z,4.90
2024-03-28T04:02:36.228Z,4.90
2024-03-28T04:05:08.243Z,5.80
2024-03-28T04:07:39.182Z,5.10
2024-03-28T04:10:11.541Z,5.70
2024-03-28T04:12:42.643Z,5.60
2024-03-28T04:15:13.773Z,5.60
2024-03-28T04:17:45.340Z,5.90
2024-03-28T04:20:16.679Z,5.30
2024-03-28T04:22:47.746Z,5.00
2024-03-28T04:25:20.620Z,5.20
2024-03-28T04:27:51.820Z,5.70
2024-03-28T04:30:30.581Z,5.80
2024-03-28T04:33:01.845Z,5.30
2024-03-28T04:35:33.002Z,5.60
2024-03-28T04:38:04.037Z,5.10
2024-03-28T04:40:35.699Z,4.80
2024-03-28T04:43:07.037Z,5.10
2024-03-28T04:45:38.189Z,5.60
2024-03-28T04:48:10.241Z,5.30
2024-03-28T04:50:43.836Z,5.50
2024-03-28T04:53:15.155Z,6.00
2024-03-28T04:55:46.428Z,6.20
2024-03-28T04:58:17.461Z,5.80
2024-03-28T05:00:48.377Z,5.30
2024-03-28T05:03:19.233Z,5.50
2024-03-28T05:05:51.471Z,5.30
2024-03-28T05:08:23.034Z,5.10
2024-03-28T05:10:54.274Z,5.00
2024-03-28T05:13:25.432Z,5.40
2024-03-28T05:15:56.465Z,5.00
2024-03-28T05:18:27.496Z,5.20
2024-03-28T05:20:58.634Z,5.50
2024-03-28T05:23:29.570Z,5.20
2024-03-28T05:26:00.721Z,5.00
2024-03-28T05:28:32.208Z,5.80
2024-03-28T05:31:03.832Z,5.60
2024-03-28T05:33:35.050Z,5.70
2024-03-28T05:36:07.170Z,5.60
2024-03-28T05:38:38.187Z,5.70
2024-03-28T05:41:09.312Z,5.50
2024-03-28T05:43:40.618Z,5.00
2024-03-28T05:46:12.024Z,5.10
2024-03-28T05:48:43.045Z,4.80
2024-03-28T05:51:16.962Z,6.70
2024-03-28T05:53:50.001Z,5.60
2024-03-28T05:56:21.187Z,5.70
2024-03-28T05:58:52.383Z,5.70
2024-03-28T06:01:23.519Z,6.40
2024-03-28T06:03:55.547Z,5.80
2024-03-28T06:06:27.042Z,5.70
2024-03-28T06:08:58.419Z,5.50
2024-03-28T06:11:29.677Z,5.60
2024-03-28T06:14:11.629Z,6.10
2024-03-28T06:16:42.963Z,6.60
2024-03-28T06:19:14.557Z,6.50
2024-03-28T06:21:49.075Z,6.20
2024-03-28T06:24:20.117Z,6.10
2024-03-28T06:26:54.064Z,6.10
2024-03-28T06:29:25.950Z,6.60
2024-03-28T06:31:57.197Z,6.00
2024-03-28T06:34:28.524Z,6.10
2024-03-28T06:36:59.769Z,5.70
2024-03-28T06:39:31.808Z,6.40
2024-03-28T06:42:04.192Z,5.60
2024-03-28T06:44:35.438Z,6.00
2024-03-28T06:47:06.910Z,6.40
2024-03-28T06:49:38.121Z,6.00
2024-03-28T06:52:11.202Z,6.10
2024-03-28T06:54:43.010Z,6.40
2024-03-28T06:57:14.372Z,7.00
2024-03-28T06:59:45.621Z,5.90
2024-03-28T07:02:17.049Z,6.70
2024-03-28T07:04:48.768Z,5.90
2024-03-28T07:07:20.443Z,6.50
2024-03-28T07:09:52.668Z,6.70
2024-03-28T07:12:26.356Z,6.70
2024-03-28T07:14:58.965Z,7.00
2024-03-28T07:17:32.121Z,6.70
2024-03-28T07:20:04.606Z,6.60
2024-03-28T07:22:37.211Z,7.10
2024-03-28T07:25:10.080Z,6.40
2024-03-28T07:27:41.396Z,6.60
2024-03-28T07:30:14.922Z,6.70
2024-03-28T07:32:49.872Z,6.90
2024-03-28T07:35:21.359Z,7.40
2024-03-28T07:37:52.903Z,7.20
2024-03-28T07:40:24.368Z,6.50
2024-03-28T07:42:55.622Z,7.10
2024-03-28T07:45:27.017Z,7.10
2024-03-28T07:47:58.482Z,7.10
2024-03-28T07:50:29.853Z,7.60
2024-03-28T07:53:01.175Z,6.80
2024-03-28T07:55:32.505Z,7.30
2024-03-28T07:58:03.915Z,7.00
2024-03-28T08:00:35.867Z,7.20
2024-03-28T08:03:07.686Z,6.40
2024-03-28T08:05:39.243Z,6.90
2024-03-28T08:08:11.567Z,7.20
2024-03-28T08:10:42.983Z,6.60
2024-03-28T08:13:14.552Z,6.70
2024-03-28T08:15:45.913Z,7.00
2024-03-28T08:18:21.487Z,7.10
2024-03-28T08:20:53.228Z,6.80
2024-03-28T08:23:24.934Z,7.10
2024-03-28T08:25:58.062Z,6.40
2024-03-28T08:28:30.692Z,7.00
2024-03-28T08:31:07.667Z,7.80
2024-03-28T08:33:40.148Z,7.20
2024-03-28T08:36:15.975Z,6.70
2024-03-28T08:38:47.885Z,7.00
2024-03-28T08:41:19.068Z,6.90
2024-03-28T08:43:51.640Z,7.90
2024-03-28T08:46:23.133Z,7.80
2024-03-28T08:48:55.676Z,7.90
2024-03-28T08:51:26.887Z,7.20
2024-03-28T08:54:27.175Z,7.30
2024-03-28T08:56:59.558Z,7.00
2024-03-28T08:59:30.832Z,7.20
2024-03-28T09:02:02.121Z,6.90
2024-03-28T09:04:33.506Z,6.70
2024-03-28T09:07:05.003Z,6.90
2024-03-28T09:09:37.309Z,7.80
2024-03-28T09:12:09.719Z,7.20
2024-03-28T09:14:41.199Z,6.70
2024-03-28T09:17:13.077Z,7.10
2024-03-28T09:19:44.222Z,7.00
2024-03-28T09:22:15.991Z,7.10
2024-03-28T09:24:48.160Z,6.70
2024-03-28T09:27:20.207Z,6.50
2024-03-28T09:29:53.470Z,7.30
2024-03-28T09:32:25.129Z,7.10
2024-03-28T09:34:57.837Z,7.30
2024-03-28T09:37:29.626Z,6.40
2024-03-28T09:40:04.439Z,7.10
2024-03-28T09:42:39.189Z,5.90
2024-03-28T09:45:14.458Z,7.50
2024-03-28T09:47:46.320Z,6.80
2024-03-28T09:50:25.359Z,6.80
2024-03-28T09:52:59.786Z,6.70
2024-03-28T09:55:31.173Z,7.70
2024-03-28T09:58:04.864Z,6.10
2024-03-28T10:00:37.768Z,6.90
2024-03-28T10:03:20.353Z,6.90
2024-03-28T10:05:53.101Z,6.50
2024-03-28T10:08:25.843Z,7.00
2024-03-28T10:10:57.951Z,7.00
2024-03-28T10:13:37.210Z,6.30
2024-03-28T10:16:15.660Z,7.10
2024-03-28T10:18:48.751Z,6.30
2024-03-28T10:21:23.691Z,7.00
2024-03-28T10:23:54.770Z,7.40
2024-03-28T10:26:30.359Z,6.40
2024-03-28T10:29:02.418Z,6.30
2024-03-28T10:31:34.024Z,7.60
2024-03-28T10:34:06.595Z,6.70
2024-03-28T10:36:39.435Z,6.60
2024-03-28T10:39:13.178Z,6.00
2024-03-28T10:41:48.440Z,5.60
2024-03-28T10:44:20.603Z,6.60
2024-03-28T10:46:54.612Z,5.60
2024-03-28T10:49:34.499Z,5.50
2024-03-28T10:52:16.006Z,5.50
2024-03-28T10:54:49.870Z,5.10
2024-03-28T10:57:24.263Z,5.40
2024-03-28T10:59:58.137Z,6.00
2024-03-28T11:02:32.133Z,4.80
2024-03-28T11:05:04.527Z,4.60
2024-03-28T11:07:37.351Z,5.00
2024-03-28T11:10:11.132Z,5.70
2024-03-28T11:12:42.668Z,6.10
2024-03-28T11:15:23.077Z,4.90
2024-03-28T11:17:54.673Z,5.00
2024-03-28T11:20:26.789Z,4.40
2024-03-28T11:23:06.767Z,4.30
2024-03-28T11:25:40.538Z,4.50
2024-03-28T11:28:12.953Z,4.80
2024-03-28T11:30:58.385Z,4.60
2024-03-28T11:33:38.144Z,5.00
2024-03-28T11:36:10.689Z,5.30
2024-03-28T11:38:43.014Z,4.50
2024-03-28T11:41:14.218Z,5.00
2024-03-28T11:43:47.633Z,4.40
2024-03-28T11:46:20.582Z,4.80
2024-03-28T11:48:58.784Z,3.90
2024-03-28T11:51:29.865Z,5.50
2024-03-28T11:54:04.830Z,5.10
2024-03-28T11:56:36.929Z,5.60
2024-03-28T11:59:20.191Z,5.50
2024-03-28T12:02:04.611Z,5.30
2024-03-28T12:04:37.300Z,5.60
2024-03-28T12:07:09.233Z,4.60
2024-03-28T12:09:42.011Z,5.00
2024-03-28T12:12:14.202Z,4.70
2024-03-28T12:14:45.274Z,5.00
2024-03-28T12:17:18.196Z,4.80
2024-03-28T12:19:49.867Z,4.40
2024-03-28T12:22:21.791Z,4.50
2024-03-28T12:24:53.568Z,4.90
2024-03-28T12:27:25.544Z,4.20
2024-03-28T12:30:06.191Z,4.00
2024-03-28T12:32:37.537Z,4.30
2024-03-28T12:35:10.451Z,5.00
2024-03-28T12:37:43.164Z,4.90
2024-03-28T12:40:19.717Z,4.90
2024-03-28T12:42:51.451Z,4.70
2024-03-28T12:45:24.753Z,4.90
2024-03-28T12:47:56.399Z,4.10
2024-03-28T12:50:27.910Z,4.00
2024-03-28T12:52:59.749Z,4.10
2024-03-28T12:55:30.959Z,3.80
2024-03-28T12:58:03.239Z,4.50
2024-03-28T13:00:34.336Z,4.20
2024-03-28T13:03:06.386Z,5.20
2024-03-28T13:05:38.089Z,4.60
2024-03-28T13:08:10.487Z,4.30
2024-03-28T13:10:41.571Z,4.20
2024-03-28T13:13:13.820Z,3.60
2024-03-28T13:15:46.382Z,2.80
2024-03-28T13:18:18.440Z,1.60
2024-03-28T13:20:51.014Z,1.50
2024-03-28T13:23:22.782Z,1.40
2024-03-28T13:26:05.701Z,1.70
2024-03-28T13:28:43.543Z,2.80
2024-03-28T13:31:16.111Z,2.40
2024-03-28T13:33:47.458Z,1.90
2024-03-28T13:36:18.574Z,1.80
2024-03-28T13:38:49.723Z,1.80
2024-03-28T13:41:20.934Z,1.90
2024-03-28T13:43:53.885Z,1.90
2024-03-28T13:46:25.703Z,1.80
2024-03-28T13:48:57.151Z,1.60
2024-03-28T13:51:28.939Z,1.30
2024-03-28T13:54:01.751Z,0.90
2024-03-28T13:56:35.221Z,1.30
2024-03-28T13:59:06.857Z,1.20
2024-03-28T14:01:40.377Z,1.10
2024-03-28T14:04:11.783Z,1.10
2024-03-28T14:06:45.113Z,1.40
2024-03-28T14:09:16.737Z,2.00
2024-03-28T14:11:48.658Z,2.10
2024-03-28T14:14:20.167Z,2.10
2024-03-28T14:16:52.464Z,1.80
2024-03-28T14:19:23.715Z,1.40
2024-03-28T14:21:55.454Z,1.20
2024-03-28T14:24:26.834Z,2.30
2024-03-28T14:26:59.249Z,2.40
2024-03-28T14:29:30.425Z,2.90
2024-03-28T14:32:02.933Z,2.50
2024-03-28T14:34:35.554Z,1.10
2024-03-28T14:37:10.058Z,1.10
2024-03-28T14:39:42.205Z,1.40
2024-03-28T14:42:13.162Z,1.20
2024-03-28T14:44:47.017Z,1.20
2024-03-28T14:47:18.963Z,1.60
2024-03-28T14:49:53.675Z,1.40
2024-03-28T14:52:24.979Z,1.40
2024-03-28T14:54:56.966Z,1.30
2024-03-28T14:57:29.420Z,1.30
2024-03-28T15:00:01.285Z,1.20
2024-03-28T15:02:32.489Z,1.40
2024-03-28T15:05:04.762Z,1.70
2024-03-28T15:07:36.535Z,1.30
2024-03-28T15:10:08.824Z,1.40
2024-03-28T15:12:40.345Z,2.20
2024-03-28T15:15:12.946Z,2.00
2024-03-28T15:17:43.982Z,2.00
2024-03-28T15:20:32.394Z,1.70
2024-03-28T15:23:04.019Z,2.60
2024-03-28T15:25:36.393Z,2.30
2024-03-28T15:28:09.302Z,2.20
2024-03-28T15:30:42.493Z,2.90
2024-03-28T15:33:13.853Z,1.90
2024-03-28T15:35:46.462Z,1.90
2024-03-28T15:38:18.326Z,2.20
2024-03-28T15:40:56.124Z,2.10
2024-03-28T15:43:27.426Z,2.00
2024-03-28T15:45:58.934Z,1.80
2024-03-28T15:48:31.430Z,1.80
2024-03-28T15:51:03.341Z,1.80
2024-03-28T15:53:36.273Z,2.10
2024-03-28T15:56:09.310Z,1.90
2024-03-28T15:58:41.535Z,1.70
2024-03-28T16:01:17.256Z,2.30
2024-03-28T16:03:48.753Z,1.90
2024-03-28T16:06:22.544Z,2.30
2024-03-28T16:08:53.781Z,2.60
2024-03-28T16:11:29.645Z,2.30
2024-03-28T16:14:00.744Z,2.80
2024-03-28T16:16:32.181Z,2.00
2024-03-28T16:19:03.375Z,1.70
2024-03-28T16:21:34.689Z,2.30
2024-03-28T16:24:07.236Z,2.70
2024-03-28T16:26:38.612Z,2.50
2024-03-28T16:29:11.169Z,3.00
2024-03-28T16:31:43.615Z,3.00
2024-03-28T16:34:14.850Z,2.80
2024-03-28T16:36:46.229Z,2.30
2024-03-28T16:39:17.366Z,2.70
2024-03-28T16:41:49.091Z,3.00
2024-03-28T16:44:20.677Z,3.30
2024-03-28T16:46:51.821Z,3.70
2024-03-28T16:49:23.161Z,3.20
2024-03-28T16:51:56.118Z,3.60
2024-03-28T16:54:27.615Z,4.40
2024-03-28T16:56:58.967Z,4.10
2024-03-28T16:59:30.093Z,4.70
2024-03-28T17:02:01.216Z,5.10
2024-03-28T17:04:32.436Z,5.30
2024-03-28T17:07:03.738Z,5.30
2024-03-28T17:09:35.050Z,5.60
2024-03-28T17:12:08.358Z,5.10
2024-03-28T17:14:40.448Z,6.40
2024-03-28T17:17:11.552Z,5.60
2024-03-28T17:19:42.749Z,5.90
2024-03-28T17:22:14.018Z,6.50
2024-03-28T17:24:45.871Z,5.80
2024-03-28T17:27:19.577Z,6.60
2024-03-28T17:29:50.954Z,6.80
2024-03-28T17:32:22.290Z,6.30
2024-03-28T17:34:56.093Z,6.00
2024-03-28T17:37:28.886Z,6.20
2024-03-28T17:40:00.313Z,5.60
2024-03-28T17:42:37.160Z,6.30
2024-03-28T17:45:12.593Z,5.80
2024-03-28T17:47:46.399Z,5.90
2024-03-28T17:50:19.361Z,5.50
2024-03-28T17:52:56.253Z,6.30
2024-03-28T17:55:32.100Z,7.30
2024-03-28T17:58:05.692Z,6.80
2024-03-28T18:00:37.480Z,7.20
2024-03-28T18:03:09.209Z,8.40
2024-03-28T18:05:43.505Z,7.90
2024-03-28T18:08:15.032Z,8.20
2024-03-28T18:10:53.075Z,8.10
2024-03-28T18:13:25.366Z,8.20
2024-03-28T18:15:56.661Z,10.80
2024-03-28T18:18:28.196Z,11.40
2024-03-28T18:21:04.758Z,9.40
2024-03-28T18:23:39.636Z,10.40
2024-03-28T18:26:10.996Z,10.60
2024-03-28T18:28:42.556Z,11.10
2024-03-28T18:31:14.143Z,16.80
2024-03-28T18:33:45.261Z,19.60
2024-03-28T18:36:16.476Z,22.40
2024-03-28T18:38:47.485Z,23.00
2024-03-28T18:41:19.939Z,19.30
2024-03-28T18:43:51.583Z,17.30
2024-03-28T18:46:22.720Z,18.10
2024-03-28T18:48:53.982Z,15.60
2024-03-28T18:51:25.061Z,17.10
2024-03-28T18:53:56.134Z,16.20
2024-03-28T18:56:28.735Z,16.40
2024-03-28T18:59:00.037Z,13.70
2024-03-28T19:01:31.730Z,14.20
2024-03-28T19:04:02.753Z,13.30
2024-03-28T19:06:33.664Z,13.60
2024-03-28T19:09:04.647Z,12.60
2024-03-28T19:11:35.721Z,11.60
2024-03-28T19:14:09.249Z,12.80
2024-03-28T19:16:40.396Z,12.60
2024-03-28T19:19:11.668Z,13.00
2024-03-28T19:21:42.922Z,13.80
2024-03-28T19:24:14.449Z,12.40
2024-03-28T19:26:46.228Z,13.20
2024-03-28T19:29:19.200Z,13.50
2024-03-28T19:31:51.588Z,14.00
2024-03-28T19:34:25.026Z,13.10
2024-03-28T19:36:58.140Z,12.80
2024-03-28T19:39:31.623Z,14.00
2024-03-28T19:42:04.972Z,14.20
2024-03-28T19:44:37.764Z,16.40
2024-03-28T19:47:11.610Z,15.00
2024-03-28T19:49:44.202Z,15.70
2024-03-28T19:52:16.652Z,16.90
2024-03-28T19:54:48.716Z,14.80
2024-03-28T19:57:20.972Z,13.40
2024-03-28T20:00:01.245Z,12.60
2024-03-28T20:02:34.430Z,11.40
2024-03-28T20:05:08.213Z,11.40
2024-03-28T20:07:50.161Z,11.60
2024-03-28T20:10:24.549Z,11.40
2024-03-28T20:12:58.058Z,12.60
2024-03-28T20:15:32.319Z,12.10
2024-03-28T20:18:04.488Z,13.30
2024-03-28T20:20:38.763Z,12.10
2024-03-28T20:23:12.939Z,10.80
2024-03-28T20:25:45.629Z,11.60
2024-03-28T20:28:20.220Z,9.80
2024-03-28T20:33:27.430Z,10.10
2024-03-28T20:36:01.104Z,11.30
2024-03-28T20:38:32.402Z,10.40
2024-03-28T20:41:04.701Z,9.60
2024-03-28T20:43:35.875Z,10.30
2024-03-28T20:46:13.357Z,10.80
2024-03-28T20:48:45.415Z,10.00
2024-03-28T20:51:19.688Z,8.70
2024-03-28T20:53:53.389Z,8.80
2024-03-28T20:56:25.253Z,8.80
2024-03-28T20:58:57.249Z,9.00
2024-03-28T21:01:29.808Z,8.60
2024-03-28T21:04:01.428Z,8.60
2024-03-28T21:06:50.184Z,9.00
2024-03-28T21:09:40.971Z,8.40
2024-03-28T21:12:15.208Z,8.30
2024-03-28T21:14:47.429Z,9.80
2024-03-28T21:17:19.094Z,10.50
2024-03-28T21:19:51.944Z,11.30
2024-03-28T21:22:23.153Z,10.40
2024-03-28T21:24:54.215Z,10.80
2024-03-28T21:27:25.976Z,10.90
2024-03-28T21:29:57.546Z,11.50
2024-03-28T21:32:29.453Z,9.20
2024-03-28T21:35:06.365Z,10.20
2024-03-28T21:37:39.246Z,9.00
2024-03-28T21:40:12.468Z,11.20
2024-03-28T21:42:45.938Z,10.80
2024-03-28T21:45:19.850Z,13.70
2024-03-28T21:47:55.282Z,11.80
2024-03-28T21:50:28.741Z,10.20
2024-03-28T21:53:00.577Z,9.30
2024-03-28T21:55:32.551Z,8.70
2024-03-28T21:58:04.655Z,8.00
2024-03-28T22:00:37.860Z,8.00
2024-03-28T22:03:09.472Z,7.60
2024-03-28T22:05:42.346Z,7.70
2024-03-28T22:08:13.772Z,7.90
2024-03-28T22:10:45.069Z,7.60
2024-03-28T22:13:16.292Z,8.40
2024-03-28T22:15:56.810Z,8.20
2024-03-28T22:18:29.027Z,8.60
2024-03-28T22:21:00.594Z,8.90
2024-03-28T22:23:32.359Z,7.60
2024-03-28T22:26:03.786Z,9.10
2024-03-28T22:28:35.116Z,7.50
2024-03-28T22:31:07.117Z,8.10
2024-03-28T22:33:38.387Z,6.90
2024-03-28T22:36:11.451Z,6.60
2024-03-28T22:38:43.384Z,5.70
2024-03-28T22:41:16.158Z,6.10
2024-03-28T22:43:47.476Z,5.10
2024-03-28T22:46:19.160Z,5.20
2024-03-28T22:48:52.127Z,5.20
2024-03-28T22:51:23.496Z,4.60
2024-03-28T22:53:56.245Z,4.30
2024-03-28T22:56:29.418Z,4.00
2024-03-28T22:59:01.256Z,3.40
2024-03-28T23:01:33.921Z,3.30
2024-03-28T23:04:06.665Z,3.70
2024-03-28T23:06:38.518Z,3.40
2024-03-28T23:09:10.677Z,3.40
2024-03-28T23:11:42.011Z,3.10
2024-03-28T23:14:13.619Z,3.10
2024-03-28T23:16:44.674Z,3.10
2024-03-28T23:19:16.178Z,2.70
2024-03-28T23:21:48.160Z,2.80
2024-03-28T23:24:19.467Z,2.40
2024-03-28T23:26:51.299Z,2.50
2024-03-28T23:29:23.383Z,2.50
2024-03-28T23:31:54.716Z,2.40
2024-03-28T23:34:26.222Z,2.10
2024-03-28T23:36:59.047Z,1.80
2024-03-28T23:39:31.376Z,2.30
2024-03-28T23:42:02.576Z,1.90
2024-03-28T23:44:34.069Z,2.10
2024-03-28T23:47:05.297Z,1.90
2024-03-28T23:49:36.580Z,1.90
2024-03-28T23:52:08.976Z,1.70
2024-03-28T23:54:40.516Z,1.60
2024-03-28T23:57:11.691Z,1.70
2024-03-28T23:59:42.839Z,1.80
